createdAt,value
2019-06-26T00:01:58.482Z,119.00
2019-06-26T00:04:26.604Z,127.30
2019-06-26T00:06:54.741Z,127.22
2019-06-26T00:09:22.884Z,123.62
2019-06-26T00:11:51.052Z,109.30
2019-06-26T00:14:19.202Z,124.05
2019-06-26T00:16:47.335Z,122.40
2019-06-26T00:19:15.457Z,124.80
2019-06-26T00:21:43.595Z,118.42
2019-06-26T00:24:11.707Z,135.85
2019-06-26T00:26:39.823Z,133.47
2019-06-26T00:29:07.968Z,145.80
2019-06-26T00:31:36.173Z,144.10
2019-06-26T00:34:04.379Z,149.12
2019-06-26T00:36:32.527Z,144.32
2019-06-26T00:39:05.544Z,145.80
2019-06-26T00:41:33.699Z,155.95
2019-06-26T00:44:01.831Z,154.25
2019-06-26T00:46:29.944Z,139.25
2019-06-26T00:48:58.164Z,146.40
2019-06-26T00:51:26.417Z,166.88
2019-06-26T00:53:54.539Z,169.40
2019-06-26T00:56:22.689Z,171.90
2019-06-26T00:58:50.807Z,172.68
2019-06-26T01:01:18.941Z,187.82
2019-06-26T01:03:48.529Z,184.87
2019-06-26T01:06:34.888Z,172.62
2019-06-26T01:09:03.348Z,192.18
2019-06-26T01:11:31.622Z,211.32
2019-06-26T01:14:01.866Z,192.40
2019-06-26T01:16:30.059Z,174.27
2019-06-26T01:18:58.549Z,197.57
2019-06-26T01:21:26.749Z,194.02
2019-06-26T01:23:54.873Z,193.93
2019-06-26T01:26:23.018Z,210.45
2019-06-26T01:28:51.232Z,192.05
2019-06-26T01:31:19.405Z,211.92
2019-06-26T01:33:47.519Z,206.10
2019-06-26T01:36:15.647Z,197.98
2019-06-26T01:38:43.783Z,209.47
2019-06-26T01:41:11.992Z,204.85
2019-06-26T01:43:40.106Z,206.47
2019-06-26T01:46:08.255Z,186.77
2019-06-26T01:48:36.452Z,192.62
2019-06-26T01:51:04.583Z,177.72
2019-06-26T01:53:33.899Z,193.15
2019-06-26T01:56:02.047Z,206.82
2019-06-26T01:58:30.172Z,215.10
2019-06-26T02:00:58.331Z,193.70
2019-06-26T02:03:26.469Z,211.20
2019-06-26T02:05:54.655Z,202.78
2019-06-26T02:08:22.792Z,199.82
2019-06-26T02:10:51.022Z,196.22
2019-06-26T02:13:19.510Z,201.55
2019-06-26T02:15:47.646Z,189.20
2019-06-26T02:18:32.538Z,200.07
2019-06-26T02:21:00.681Z,212.88
2019-06-26T02:23:28.791Z,208.28
2019-06-26T02:25:56.953Z,199.60
2019-06-26T02:28:25.136Z,200.57
2019-06-26T02:30:53.349Z,210.30
2019-06-26T02:33:21.490Z,171.87
2019-06-26T02:35:49.700Z,195.38
2019-06-26T02:38:17.820Z,184.80
2019-06-26T02:40:45.958Z,180.40
2019-06-26T02:43:14.118Z,176.85
2019-06-26T02:45:42.249Z,173.72
2019-06-26T02:48:10.450Z,159.60
2019-06-26T02:50:38.576Z,173.30
2019-06-26T02:53:06.769Z,171.57
2019-06-26T02:55:35.156Z,175.60
2019-06-26T02:58:03.274Z,169.37
2019-06-26T03:00:31.431Z,153.60
2019-06-26T03:02:59.564Z,165.90
2019-06-26T03:05:27.675Z,165.32
2019-06-26T03:07:55.798Z,154.00
2019-06-26T03:10:23.947Z,157.75
2019-06-26T03:12:52.085Z,164.37
2019-06-26T03:15:20.258Z,150.68
2019-06-26T03:17:55.366Z,153.93
2019-06-26T03:20:21.665Z,167.03
2019-06-26T03:22:49.782Z,145.70
2019-06-26T03:25:17.922Z,139.00
2019-06-26T03:27:46.042Z,158.32
2019-06-26T03:30:14.271Z,141.00
2019-06-26T03:32:42.397Z,142.72
2019-06-26T03:35:10.683Z,130.45
2019-06-26T03:37:38.853Z,141.50
2019-06-26T03:40:07.110Z,121.77
2019-06-26T03:42:35.304Z,124.38
2019-06-26T03:45:04.607Z,121.05
2019-06-26T03:47:32.745Z,119.72
2019-06-26T03:50:00.890Z,128.72
2019-06-26T03:52:29.011Z,122.22
2019-06-26T03:54:57.169Z,122.85
2019-06-26T03:57:25.351Z,115.72
2019-06-26T03:59:53.487Z,114.42
2019-06-26T04:02:21.623Z,111.45
2019-06-26T04:04:49.736Z,114.75
2019-06-26T04:07:17.876Z,107.47
2019-06-26T04:09:46.046Z,110.10
2019-06-26T04:12:14.199Z,107.10
2019-06-26T04:14:42.735Z,92.82
2019-06-26T04:17:13.950Z,97.53
2019-06-26T04:19:42.255Z,101.37
2019-06-26T04:22:10.390Z,106.63
2019-06-26T04:24:38.647Z,85.38
2019-06-26T04:27:06.862Z,100.58
2019-06-26T04:29:34.995Z,99.50
2019-06-26T04:32:03.213Z,96.90
2019-06-26T04:34:31.324Z,90.03
2019-06-26T04:36:59.565Z,90.77
2019-06-26T04:39:29.566Z,80.25
2019-06-26T04:41:59.096Z,88.47
2019-06-26T04:44:28.168Z,87.33
2019-06-26T04:46:56.386Z,77.65
2019-06-26T04:49:24.517Z,86.45
2019-06-26T04:51:52.636Z,83.30
2019-06-26T04:54:20.846Z,74.10
2019-06-26T04:56:49.069Z,79.77
2019-06-26T04:59:17.187Z,79.15
2019-06-26T05:01:45.316Z,77.72
2019-06-26T05:04:13.502Z,91.35
2019-06-26T05:06:41.700Z,74.70
2019-06-26T05:09:09.836Z,79.37
2019-06-26T05:11:37.943Z,81.95
2019-06-26T05:14:06.166Z,82.35
2019-06-26T05:16:34.358Z,79.67
2019-06-26T05:19:02.507Z,78.07
2019-06-26T05:21:30.708Z,81.63
2019-06-26T05:23:59.594Z,78.05
2019-06-26T05:26:27.793Z,75.72
2019-06-26T05:28:55.902Z,74.62
2019-06-26T05:31:24.129Z,69.87
2019-06-26T05:33:52.666Z,64.62
2019-06-26T05:36:20.815Z,69.67
2019-06-26T05:38:49.032Z,73.22
2019-06-26T05:41:17.374Z,66.02
2019-06-26T05:43:45.568Z,65.92
2019-06-26T05:46:29.761Z,63.33
2019-06-26T05:48:43.563Z,66.28
2019-06-26T05:51:11.793Z,67.20
2019-06-26T05:53:40.028Z,67.72
2019-06-26T05:56:08.178Z,63.28
2019-06-26T05:58:36.317Z,60.40
2019-06-26T06:01:04.457Z,64.10
2019-06-26T06:03:32.719Z,61.37
2019-06-26T06:06:00.941Z,60.83
2019-06-26T06:08:29.086Z,54.83
2019-06-26T06:10:58.379Z,57.45
2019-06-26T06:13:26.744Z,55.52
2019-06-26T06:15:54.971Z,57.62
2019-06-26T06:18:23.091Z,52.67
2019-06-26T06:20:51.373Z,49.98
2019-06-26T06:23:19.596Z,56.75
2019-06-26T06:25:47.728Z,56.68
2019-06-26T06:28:15.978Z,56.02
2019-06-26T06:30:44.122Z,58.73
2019-06-26T06:33:12.333Z,53.50
2019-06-26T06:35:40.516Z,49.15
2019-06-26T06:38:08.681Z,47.75
2019-06-26T06:40:36.873Z,45.17
2019-06-26T06:43:04.998Z,47.93
2019-06-26T06:45:33.160Z,52.58
2019-06-26T06:48:01.324Z,48.80
2019-06-26T06:50:30.900Z,49.85
2019-06-26T06:52:59.959Z,48.30
2019-06-26T06:55:28.154Z,46.65
2019-06-26T06:57:56.879Z,49.00
2019-06-26T07:00:25.032Z,48.90
2019-06-26T07:02:53.190Z,45.83
2019-06-26T07:05:21.425Z,47.05
2019-06-26T07:07:49.560Z,40.33
2019-06-26T07:10:17.943Z,42.45
2019-06-26T07:12:46.150Z,43.92
2019-06-26T07:15:14.427Z,46.30
2019-06-26T07:17:42.540Z,40.17
2019-06-26T07:20:11.412Z,44.23
2019-06-26T07:22:39.644Z,43.78
2019-06-26T07:25:07.966Z,49.63
2019-06-26T07:27:36.177Z,42.38
2019-06-26T07:30:05.927Z,38.10
2019-06-26T07:32:37.638Z,44.70
2019-06-26T07:35:05.916Z,39.13
2019-06-26T07:37:34.031Z,39.00
2019-06-26T07:40:05.802Z,35.17
2019-06-26T07:42:33.978Z,41.65
2019-06-26T07:45:02.191Z,34.60
2019-06-26T07:47:42.365Z,35.68
2019-06-26T07:50:00.662Z,42.40
2019-06-26T07:52:28.829Z,37.60
2019-06-26T07:54:57.211Z,37.13
2019-06-26T07:57:25.359Z,33.90
2019-06-26T07:59:53.477Z,41.42
2019-06-26T08:02:21.630Z,38.83
2019-06-26T08:04:49.807Z,39.53
2019-06-26T08:07:17.947Z,37.70
2019-06-26T08:09:46.063Z,41.85
2019-06-26T08:12:14.211Z,33.38
2019-06-26T08:14:42.393Z,41.35
2019-06-26T08:17:11.525Z,39.15
2019-06-26T08:19:39.764Z,39.78
2019-06-26T08:22:07.943Z,35.50
2019-06-26T08:24:36.086Z,33.58
2019-06-26T08:27:04.290Z,37.10
2019-06-26T08:29:32.437Z,36.40
2019-06-26T08:32:00.643Z,38.85
2019-06-26T08:34:28.856Z,32.23
2019-06-26T08:36:57.197Z,34.63
2019-06-26T08:39:25.459Z,39.50
2019-06-26T08:41:55.986Z,44.70
2019-06-26T08:44:25.803Z,46.55
2019-06-26T08:46:53.910Z,34.60
2019-06-26T08:49:26.127Z,34.92
2019-06-26T08:51:53.482Z,36.00
2019-06-26T08:54:21.607Z,36.75
2019-06-26T08:56:49.767Z,33.05
2019-06-26T08:59:18.014Z,31.85
2019-06-26T09:01:47.452Z,33.18
2019-06-26T09:04:15.641Z,33.25
2019-06-26T09:06:43.835Z,36.08
2019-06-26T09:09:11.970Z,31.97
2019-06-26T09:11:40.155Z,33.95
2019-06-26T09:14:08.281Z,31.55
2019-06-26T09:16:37.466Z,31.20
2019-06-26T09:19:09.997Z,29.67
2019-06-26T09:21:41.879Z,28.73
2019-06-26T09:24:10.864Z,29.00
2019-06-26T09:26:38.999Z,28.15
2019-06-26T09:29:08.782Z,24.98
2019-06-26T09:31:37.979Z,23.95
2019-06-26T09:34:08.653Z,18.30
2019-06-26T09:36:40.067Z,17.52
2019-06-26T09:39:09.738Z,20.20
2019-06-26T09:41:37.931Z,17.42
2019-06-26T09:44:06.448Z,21.65
2019-06-26T09:46:34.577Z,17.10
2019-06-26T09:49:02.712Z,16.62
2019-06-26T09:51:30.905Z,17.60
2019-06-26T09:53:59.213Z,18.77
2019-06-26T09:56:27.375Z,18.07
2019-06-26T09:58:55.509Z,16.27
2019-06-26T10:01:23.616Z,15.98
2019-06-26T10:03:51.769Z,16.27
2019-06-26T10:06:19.882Z,21.60
2019-06-26T10:08:48.003Z,22.25
2019-06-26T10:11:16.127Z,17.37
2019-06-26T10:13:51.218Z,18.90
2019-06-26T10:16:19.420Z,17.92
2019-06-26T10:18:47.558Z,18.23
2019-06-26T10:21:15.686Z,20.80
2019-06-26T10:23:43.811Z,19.87
2019-06-26T10:26:12.012Z,24.43
2019-06-26T10:28:40.177Z,26.75
2019-06-26T10:31:08.358Z,22.60
2019-06-26T10:33:38.129Z,20.25
2019-06-26T10:36:06.601Z,22.75
2019-06-26T10:38:34.754Z,22.77
2019-06-26T10:41:02.996Z,19.17
2019-06-26T10:43:31.161Z,24.07
2019-06-26T10:45:59.401Z,20.57
2019-06-26T10:48:27.600Z,23.47
2019-06-26T10:50:58.764Z,19.20
2019-06-26T10:53:25.715Z,21.55
2019-06-26T10:55:53.863Z,18.05
2019-06-26T10:58:22.086Z,21.48
2019-06-26T11:00:50.288Z,24.75
2019-06-26T11:03:18.436Z,21.55
2019-06-26T11:05:49.595Z,22.77
2019-06-26T11:08:17.726Z,25.68
2019-06-26T11:10:45.983Z,23.02
2019-06-26T11:13:14.138Z,22.15
2019-06-26T11:15:42.333Z,20.92
2019-06-26T11:18:12.228Z,25.85
2019-06-26T11:20:40.747Z,24.25
2019-06-26T11:23:08.873Z,24.27
2019-06-26T11:25:37.162Z,19.82
2019-06-26T11:28:05.374Z,21.15
2019-06-26T11:30:33.503Z,21.10
2019-06-26T11:33:02.601Z,22.65
2019-06-26T11:35:30.796Z,18.65
2019-06-26T11:37:59.592Z,20.68
2019-06-26T11:40:28.368Z,25.65
2019-06-26T11:42:56.511Z,20.20
2019-06-26T11:45:24.758Z,22.58
2019-06-26T11:47:53.053Z,24.20
2019-06-26T11:50:21.821Z,21.33
2019-06-26T11:52:51.019Z,24.75
2019-06-26T11:55:21.385Z,20.45
2019-06-26T11:57:49.842Z,21.75
2019-06-26T12:00:21.551Z,18.98
2019-06-26T12:02:50.610Z,17.10
2019-06-26T12:05:19.851Z,21.00
2019-06-26T12:07:48.965Z,21.95
2019-06-26T12:10:18.769Z,20.65
2019-06-26T12:12:46.933Z,21.30
2019-06-26T12:15:15.573Z,21.60
2019-06-26T12:17:44.926Z,20.17
2019-06-26T12:20:19.060Z,16.87
2019-06-26T12:22:45.566Z,22.45
2019-06-26T12:25:14.640Z,24.55
2019-06-26T12:27:42.766Z,18.07
2019-06-26T12:30:11.094Z,18.95
2019-06-26T12:32:42.107Z,18.65
2019-06-26T12:35:09.455Z,17.30
2019-06-26T12:37:38.560Z,21.15
2019-06-26T12:40:07.761Z,18.05
2019-06-26T12:42:36.062Z,20.97
2019-06-26T12:45:08.812Z,16.15
2019-06-26T12:47:39.071Z,17.00
2019-06-26T12:50:08.011Z,19.02
2019-06-26T12:52:36.117Z,18.92
2019-06-26T12:55:07.208Z,19.57
2019-06-26T12:57:35.413Z,30.20
2019-06-26T13:00:07.899Z,12.68
2019-06-26T13:02:36.031Z,18.92
2019-06-26T13:05:05.603Z,16.17
2019-06-26T13:07:33.749Z,16.23
2019-06-26T13:10:02.183Z,15.18
2019-06-26T13:12:30.531Z,13.70
2019-06-26T13:14:58.888Z,14.45
2019-06-26T13:17:27.204Z,18.30
2019-06-26T13:19:55.379Z,14.70
2019-06-26T13:22:23.504Z,14.55
2019-06-26T13:24:51.687Z,14.60
2019-06-26T13:27:20.747Z,14.90
2019-06-26T13:29:48.868Z,11.57
2019-06-26T13:32:17.908Z,12.35
2019-06-26T13:34:46.044Z,11.65
2019-06-26T13:37:14.353Z,19.25
2019-06-26T13:39:42.502Z,12.68
2019-06-26T13:42:10.640Z,14.65
2019-06-26T13:44:39.613Z,14.45
2019-06-26T13:47:07.884Z,11.75
2019-06-26T13:49:36.657Z,15.65
2019-06-26T13:52:05.896Z,14.47
2019-06-26T13:54:34.049Z,10.72
2019-06-26T13:57:03.092Z,13.80
2019-06-26T13:59:31.314Z,13.35
2019-06-26T14:02:00.625Z,11.15
2019-06-26T14:04:28.835Z,13.38
2019-06-26T14:06:57.043Z,13.45
2019-06-26T14:09:25.185Z,13.18
2019-06-26T14:11:53.387Z,15.25
2019-06-26T14:14:22.264Z,15.35
2019-06-26T14:16:52.924Z,17.30
2019-06-26T14:19:21.143Z,14.10
2019-06-26T14:21:49.348Z,12.23
2019-06-26T14:24:18.894Z,13.38
2019-06-26T14:26:47.037Z,13.50
2019-06-26T14:29:20.744Z,12.23
2019-06-26T14:31:47.165Z,12.73
2019-06-26T14:34:15.374Z,13.55
2019-06-26T14:36:43.600Z,16.17
2019-06-26T14:39:12.094Z,10.98
2019-06-26T14:41:40.264Z,10.45
2019-06-26T14:44:08.436Z,15.78
2019-06-26T14:46:36.565Z,16.30
2019-06-26T14:49:04.926Z,12.78
2019-06-26T14:51:46.393Z,11.75
2019-06-26T14:54:02.910Z,10.23
2019-06-26T14:56:31.122Z,13.93
2019-06-26T14:58:59.238Z,9.93
2019-06-26T15:01:27.449Z,11.40
2019-06-26T15:03:55.597Z,8.10
2019-06-26T15:06:24.009Z,12.82
2019-06-26T15:08:52.145Z,12.78
2019-06-26T15:11:20.536Z,12.78
2019-06-26T15:13:48.772Z,12.40
2019-06-26T15:16:16.922Z,14.68
2019-06-26T15:18:45.066Z,10.53
2019-06-26T15:21:13.235Z,11.00
2019-06-26T15:23:41.444Z,11.50
2019-06-26T15:26:09.652Z,13.90
2019-06-26T15:28:37.903Z,11.45
2019-06-26T15:31:09.169Z,10.53
2019-06-26T15:33:37.363Z,12.53
2019-06-26T15:36:05.530Z,8.13
2019-06-26T15:38:36.497Z,12.60
2019-06-26T15:41:04.682Z,10.50
2019-06-26T15:43:32.879Z,10.70
2019-06-26T15:46:02.027Z,11.03
2019-06-26T15:48:30.354Z,8.55
2019-06-26T15:50:58.494Z,10.05
2019-06-26T15:53:26.676Z,9.33
2019-06-26T15:55:54.822Z,9.70
2019-06-26T15:58:22.927Z,10.70
2019-06-26T16:00:51.056Z,11.08
2019-06-26T16:03:19.174Z,8.15
2019-06-26T16:05:47.303Z,8.58
2019-06-26T16:08:15.454Z,10.95
2019-06-26T16:10:43.614Z,10.28
2019-06-26T16:13:11.737Z,10.10
2019-06-26T16:15:39.992Z,8.93
2019-06-26T16:18:10.627Z,10.72
2019-06-26T16:20:38.747Z,7.35
2019-06-26T16:23:06.988Z,10.50
2019-06-26T16:25:35.104Z,6.83
2019-06-26T16:28:05.826Z,9.78
2019-06-26T16:30:33.063Z,9.63
2019-06-26T16:33:01.175Z,8.93
2019-06-26T16:35:29.313Z,10.68
2019-06-26T16:37:57.482Z,8.23
2019-06-26T16:40:25.652Z,12.78
2019-06-26T16:42:54.026Z,8.35
2019-06-26T16:45:22.238Z,7.08
2019-06-26T16:47:50.431Z,11.00
2019-06-26T16:50:18.603Z,22.30
2019-06-26T16:52:49.655Z,8.85
2019-06-26T16:55:16.732Z,12.40
2019-06-26T16:57:44.908Z,8.68
2019-06-26T17:00:13.102Z,11.03
2019-06-26T17:02:41.222Z,8.08
2019-06-26T17:05:09.610Z,9.90
2019-06-26T17:07:37.723Z,11.15
2019-06-26T17:10:07.366Z,8.75
2019-06-26T17:12:35.484Z,14.00
2019-06-26T17:15:05.195Z,11.78
2019-06-26T17:17:33.327Z,10.82
2019-06-26T17:20:01.929Z,6.83
2019-06-26T17:22:31.290Z,10.55
2019-06-26T17:25:00.060Z,15.70
2019-06-26T17:27:28.216Z,10.15
2019-06-26T17:29:58.340Z,13.68
2019-06-26T17:32:28.165Z,15.23
2019-06-26T17:34:57.974Z,11.63
2019-06-26T17:37:26.135Z,13.98
2019-06-26T17:39:56.060Z,11.43
2019-06-26T17:42:27.046Z,9.85
2019-06-26T17:44:55.306Z,9.65
2019-06-26T17:47:23.496Z,12.85
2019-06-26T17:49:52.039Z,11.25
2019-06-26T17:52:20.399Z,12.35
2019-06-26T17:54:49.547Z,8.83
2019-06-26T17:57:18.005Z,12.82
2019-06-26T17:59:48.236Z,11.97
2019-06-26T18:02:16.406Z,15.45
2019-06-26T18:04:45.351Z,10.90
2019-06-26T18:07:14.632Z,14.13
2019-06-26T18:09:43.989Z,7.95
2019-06-26T18:12:13.261Z,9.18
2019-06-26T18:14:43.341Z,11.70
2019-06-26T18:17:21.597Z,12.55
2019-06-26T18:19:41.739Z,11.03
2019-06-26T18:22:09.979Z,10.35
2019-06-26T18:24:40.027Z,10.13
2019-06-26T18:27:08.659Z,14.80
2019-06-26T18:29:41.081Z,10.28
2019-06-26T18:32:09.417Z,10.58
2019-06-26T18:34:42.112Z,12.20
2019-06-26T18:37:10.502Z,13.32
2019-06-26T18:39:39.857Z,8.93
2019-06-26T18:42:08.324Z,9.83
2019-06-26T18:44:36.609Z,8.55
2019-06-26T18:47:04.713Z,10.18
2019-06-26T18:49:32.851Z,13.48
2019-06-26T18:52:00.979Z,10.10
2019-06-26T18:54:29.102Z,10.98
2019-06-26T18:56:57.235Z,10.10
2019-06-26T18:59:25.424Z,11.68
2019-06-26T19:01:53.524Z,11.73
2019-06-26T19:04:21.651Z,11.25
2019-06-26T19:06:49.818Z,12.95
2019-06-26T19:09:17.956Z,8.95
2019-06-26T19:11:46.139Z,10.75
2019-06-26T19:14:14.291Z,10.82
2019-06-26T19:16:42.412Z,13.62
2019-06-26T19:19:12.375Z,14.15
2019-06-26T19:21:40.428Z,10.78
2019-06-26T19:24:10.499Z,13.50
2019-06-26T19:26:38.402Z,11.53
2019-06-26T19:29:06.570Z,8.98
2019-06-26T19:31:34.703Z,8.93
2019-06-26T19:34:03.353Z,11.05
2019-06-26T19:36:31.865Z,9.85
2019-06-26T19:39:00.043Z,10.70
2019-06-26T19:41:28.163Z,12.37
2019-06-26T19:43:56.288Z,10.43
2019-06-26T19:46:24.537Z,9.95
2019-06-26T19:48:52.663Z,17.50
2019-06-26T19:51:20.799Z,9.78
2019-06-26T19:53:48.932Z,13.62
2019-06-26T19:56:20.031Z,7.58
2019-06-26T19:58:46.875Z,10.38
2019-06-26T20:01:15.032Z,13.10
2019-06-26T20:03:43.237Z,12.63
2019-06-26T20:06:11.344Z,13.68
2019-06-26T20:08:52.991Z,10.08
2019-06-26T20:11:09.318Z,9.60
2019-06-26T20:13:37.451Z,12.25
2019-06-26T20:16:05.583Z,16.40
2019-06-26T20:18:33.761Z,10.60
2019-06-26T20:21:01.875Z,11.55
2019-06-26T20:23:29.998Z,10.25
2019-06-26T20:25:58.233Z,11.60
2019-06-26T20:28:26.362Z,9.78
2019-06-26T20:30:54.466Z,12.68
2019-06-26T20:33:22.586Z,13.60
2019-06-26T20:35:50.710Z,12.90
2019-06-26T20:38:18.842Z,14.33
2019-06-26T20:40:47.032Z,9.77
2019-06-26T20:43:15.188Z,15.45
2019-06-26T20:45:43.298Z,16.20
2019-06-26T20:48:11.485Z,10.23
2019-06-26T20:50:39.606Z,13.38
2019-06-26T20:53:07.786Z,10.17
2019-06-26T20:55:36.033Z,10.77
2019-06-26T20:58:04.141Z,13.83
2019-06-26T21:00:32.255Z,12.07
2019-06-26T21:03:00.552Z,15.87
2019-06-26T21:05:29.141Z,9.93
2019-06-26T21:07:57.365Z,9.70
2019-06-26T21:10:27.117Z,16.20
2019-06-26T21:12:55.227Z,8.95
2019-06-26T21:15:23.351Z,12.90
2019-06-26T21:17:51.450Z,13.40
2019-06-26T21:20:19.642Z,8.98
2019-06-26T21:22:47.755Z,11.77
2019-06-26T21:25:18.848Z,14.23
2019-06-26T21:27:45.737Z,13.83
2019-06-26T21:30:13.915Z,11.70
2019-06-26T21:32:42.126Z,13.37
2019-06-26T21:35:10.227Z,11.95
2019-06-26T21:37:38.378Z,16.43
2019-06-26T21:40:07.741Z,11.40
2019-06-26T21:42:35.970Z,10.37
2019-06-26T21:45:05.308Z,10.23
2019-06-26T21:47:33.462Z,12.43
2019-06-26T21:50:01.584Z,9.70
2019-06-26T21:52:29.712Z,14.40
2019-06-26T21:54:57.868Z,12.93
2019-06-26T21:57:25.966Z,14.50
2019-06-26T21:59:54.089Z,14.73
2019-06-26T22:02:22.260Z,12.70
2019-06-26T22:04:50.380Z,13.20
2019-06-26T22:07:18.605Z,13.73
2019-06-26T22:09:46.758Z,15.80
2019-06-26T22:12:15.367Z,12.90
2019-06-26T22:14:43.471Z,14.17
2019-06-26T22:17:11.592Z,13.00
2019-06-26T22:19:39.729Z,10.63
2019-06-26T22:22:07.853Z,12.30
2019-06-26T22:24:35.986Z,14.63
2019-06-26T22:27:04.167Z,13.90
2019-06-26T22:29:32.295Z,14.40
2019-06-26T22:32:00.471Z,13.93
2019-06-26T22:34:28.579Z,15.00
2019-06-26T22:36:56.739Z,16.40
2019-06-26T22:39:24.910Z,11.47
2019-06-26T22:41:53.040Z,14.37
2019-06-26T22:44:21.237Z,15.63
2019-06-26T22:46:51.626Z,13.33
2019-06-26T22:49:19.886Z,11.93
2019-06-26T22:51:48.102Z,18.80
2019-06-26T22:54:19.581Z,12.87
2019-06-26T22:56:46.074Z,13.40
2019-06-26T22:59:14.306Z,16.73
2019-06-26T23:01:42.476Z,12.97
2019-06-26T23:04:10.639Z,15.03
2019-06-26T23:06:38.796Z,15.83
2019-06-26T23:09:07.018Z,16.03
2019-06-26T23:11:35.146Z,14.80
2019-06-26T23:14:03.358Z,12.10
2019-06-26T23:16:31.507Z,17.77
2019-06-26T23:18:59.626Z,16.97
2019-06-26T23:21:27.772Z,13.60
2019-06-26T23:23:55.966Z,17.20
2019-06-26T23:26:24.663Z,12.77
2019-06-26T23:28:52.957Z,12.53
2019-06-26T23:31:21.123Z,14.77
2019-06-26T23:33:49.246Z,17.67
2019-06-26T23:36:17.370Z,15.67
2019-06-26T23:38:45.483Z,11.17
2019-06-26T23:41:13.843Z,12.90
2019-06-26T23:43:41.969Z,14.10
2019-06-26T23:46:10.998Z,14.50
2019-06-26T23:48:39.228Z,13.43
2019-06-26T23:51:07.519Z,12.43
2019-06-26T23:53:35.663Z,15.27
2019-06-26T23:56:03.917Z,9.47
2019-06-26T23:58:32.033Z,11.43
